Time;durP1;ratioP1;P1;durP2;ratioP2;P2;SDS_P1;SDS_P2;PMS_P1;PMS_P2;Temp;Humidity;BMP_temperature;BMP_pressure;BME280_temperature;BME280_humidity;BME280_pressure;Samples;Min_cycle;Max_cycle;Signal;HPM_P1;HPM_P2
2022/09/15 00:00:12;;;;;;;6.72;1.23;;;;;;;;;;5103902;28;20235;-14
2022/09/15 00:02:40;;;;;;;6.65;0.90;;;;;;;;;;5103794;27;20291;-14
2022/09/15 00:05:08;;;;;;;2.38;1.10;;;;;;;;;;5104714;28;20227;-14
2022/09/15 00:07:38;;;;;;;3.10;1.00;;;;;;;;;;5102556;28;20236;-14
2022/09/15 00:10:05;;;;;;;3.25;1.10;;;;;;;;;;5113575;28;20303;-14
2022/09/15 00:12:33;;;;;;;2.58;1.40;;;;;;;;;;5112053;28;20229;-14
2022/09/15 00:15:00;;;;;;;3.08;1.20;;;;;;;;;;5112948;28;20236;-14
2022/09/15 00:17:27;;;;;;;4.40;1.20;;;;;;;;;;5093469;28;20236;-14
2022/09/15 00:19:57;;;;;;;4.10;1.10;;;;;;;;;;5092430;28;21074;-14
2022/09/15 00:22:25;;;;;;;2.72;1.00;;;;;;;;;;5092654;28;20240;-14
2022/09/15 00:24:52;;;;;;;2.83;1.10;;;;;;;;;;5098651;28;20281;-14
2022/09/15 00:27:19;;;;;;;5.10;1.67;;;;;;;;;;5113436;28;20232;-14
2022/09/15 00:29:47;;;;;;;2.22;1.17;;;;;;;;;;5113413;28;20660;-14
2022/09/15 00:32:14;;;;;;;3.80;1.02;;;;;;;;;;5094912;28;20229;-14
2022/09/15 00:34:41;;;;;;;3.33;1.00;;;;;;;;;;5092842;28;20228;-14
2022/09/15 00:37:10;;;;;;;3.17;0.80;;;;;;;;;;5109920;28;20236;-14
2022/09/15 00:39:37;;;;;;;3.58;0.98;;;;;;;;;;5113338;28;20236;-14
2022/09/15 00:42:05;;;;;;;3.65;1.55;;;;;;;;;;5100007;28;20233;-14
2022/09/15 00:44:49;;;;;;;2.92;1.63;;;;;;;;;;5108587;28;20852;-14
2022/09/15 00:47:16;;;;;;;2.60;1.58;;;;;;;;;;5103042;28;20289;-14
2022/09/15 00:49:46;;;;;;;3.03;1.88;;;;;;;;;;5113066;28;20722;-14
2022/09/15 00:52:15;;;;;;;4.22;2.05;;;;;;;;;;5112630;28;20231;-14
2022/09/15 00:54:44;;;;;;;3.17;1.63;;;;;;;;;;5112740;28;20278;-14
2022/09/15 00:57:11;;;;;;;4.43;2.10;;;;;;;;;;5112274;27;20224;-14
2022/09/15 00:59:39;;;;;;;3.28;2.30;;;;;;;;;;5112868;28;20760;-14
2022/09/15 01:02:08;;;;;;;6.65;2.30;;;;;;;;;;5113037;28;20236;-14
2022/09/15 01:04:36;;;;;;;3.10;2.10;;;;;;;;;;5110365;28;20282;-14
2022/09/15 01:07:03;;;;;;;5.72;2.38;;;;;;;;;;5111746;27;20243;-14
2022/09/15 01:09:33;;;;;;;3.70;2.15;;;;;;;;;;5110489;27;20232;-14
2022/09/15 01:12:00;;;;;;;4.43;2.30;;;;;;;;;;5119209;27;20873;-14
2022/09/15 01:14:27;;;;;;;3.90;2.10;;;;;;;;;;5110413;28;20286;-14
2022/09/15 01:16:56;;;;;;;4.90;1.75;;;;;;;;;;5112479;28;21035;-14
2022/09/15 01:19:35;;;;;;;2.47;1.85;;;;;;;;;;5112593;28;20242;-14
2022/09/15 01:22:05;;;;;;;4.75;2.15;;;;;;;;;;5111928;28;20243;-14
2022/09/15 01:24:38;;;;;;;5.45;1.98;;;;;;;;;;5112664;28;20232;-14
2022/09/15 01:27:07;;;;;;;3.70;2.03;;;;;;;;;;5111535;27;20268;-14
2022/09/15 01:30:09;;;;;;;5.32;1.48;;;;;;;;;;5112637;28;20316;-14
2022/09/15 01:35:27;;;;;;;3.90;1.98;;;;;;;;;;5111728;28;20231;-14
2022/09/15 01:37:56;;;;;;;4.55;1.80;;;;;;;;;;5111673;27;20752;-14
2022/09/15 01:40:23;;;;;;;2.83;1.80;;;;;;;;;;5112252;28;21053;-14
2022/09/15 01:42:51;;;;;;;4.75;1.80;;;;;;;;;;5110741;28;20237;-14
2022/09/15 01:45:21;;;;;;;3.78;1.65;;;;;;;;;;5109835;28;20239;-14
2022/09/15 01:47:48;;;;;;;4.63;1.60;;;;;;;;;;5097295;28;20327;-14
2022/09/15 01:50:16;;;;;;;3.30;1.77;;;;;;;;;;5112293;28;20997;-14
2022/09/15 01:52:44;;;;;;;6.10;1.85;;;;;;;;;;5112055;28;20764;-14
2022/09/15 01:55:13;;;;;;;3.40;1.80;;;;;;;;;;5111878;28;20235;-14
2022/09/15 01:57:40;;;;;;;5.00;1.83;;;;;;;;;;5111939;28;20631;-14
2022/09/15 02:00:08;;;;;;;6.53;1.83;;;;;;;;;;5110620;28;20282;-14
2022/09/15 02:02:37;;;;;;;3.30;1.30;;;;;;;;;;5105887;28;20357;-14
2022/09/15 02:05:06;;;;;;;2.63;1.30;;;;;;;;;;5091637;28;20228;-14
2022/09/15 02:07:35;;;;;;;3.63;1.52;;;;;;;;;;5091710;28;20228;-14
2022/09/15 02:10:06;;;;;;;3.90;1.58;;;;;;;;;;5106260;27;20228;-14
2022/09/15 02:12:33;;;;;;;2.63;1.60;;;;;;;;;;5132478;27;20223;-14
2022/09/15 02:15:06;;;;;;;2.63;1.50;;;;;;;;;;5132226;27;20274;-14
2022/09/15 02:17:34;;;;;;;6.82;1.45;;;;;;;;;;5091010;28;20279;-14
2022/09/15 02:20:05;;;;;;;5.15;1.73;;;;;;;;;;5091028;28;20228;-14
2022/09/15 02:22:33;;;;;;;3.03;1.30;;;;;;;;;;5116123;22;20821;-17
2022/09/15 02:25:02;;;;;;;5.05;1.73;;;;;;;;;;5106586;28;20334;-17
2022/09/15 02:27:30;;;;;;;2.25;1.55;;;;;;;;;;5093597;28;20228;-17
2022/09/15 02:29:59;;;;;;;3.78;1.50;;;;;;;;;;5095648;28;20678;-17
2022/09/15 02:32:26;;;;;;;3.95;1.55;;;;;;;;;;5111737;27;20251;-17
2022/09/15 02:34:53;;;;;;;2.17;1.40;;;;;;;;;;5111946;28;20236;-17
2022/09/15 02:37:22;;;;;;;3.47;1.40;;;;;;;;;;5112412;28;20675;-17
2022/09/15 02:39:51;;;;;;;2.65;1.38;;;;;;;;;;5112246;28;20216;-18
2022/09/15 02:42:23;;;;;;;4.25;1.27;;;;;;;;;;5110706;28;20323;-16
2022/09/15 02:44:50;;;;;;;7.40;1.50;;;;;;;;;;5111486;28;20219;-16
2022/09/15 02:47:18;;;;;;;3.33;1.17;;;;;;;;;;5111176;28;20222;-16
2022/09/15 02:49:45;;;;;;;1.40;0.88;;;;;;;;;;5110652;28;20228;-18
2022/09/15 02:52:12;;;;;;;2.95;1.33;;;;;;;;;;5111830;28;20224;-17
2022/09/15 02:54:41;;;;;;;3.25;1.40;;;;;;;;;;5106644;28;20393;-17
2022/09/15 02:57:09;;;;;;;2.53;1.00;;;;;;;;;;5099547;28;20286;-17
2022/09/15 03:02:19;;;;;;;2.85;1.48;;;;;;;;;;5099254;28;20266;-18
2022/09/15 03:04:46;;;;;;;5.50;1.90;;;;;;;;;;5097624;28;20298;-18
2022/09/15 03:07:14;;;;;;;2.75;1.20;;;;;;;;;;5100414;28;20768;-17
2022/09/15 03:09:42;;;;;;;4.20;1.40;;;;;;;;;;5100696;28;20224;-17
2022/09/15 03:12:10;;;;;;;2.17;1.40;;;;;;;;;;5100116;28;20228;-16
2022/09/15 03:14:37;;;;;;;2.33;1.20;;;;;;;;;;5102879;28;20225;-18
2022/09/15 03:17:04;;;;;;;2.45;1.30;;;;;;;;;;5102693;28;20676;-17
2022/09/15 03:19:32;;;;;;;4.82;1.50;;;;;;;;;;5098979;28;20238;-17
2022/09/15 03:21:59;;;;;;;2.45;1.10;;;;;;;;;;5090204;28;20332;-18
2022/09/15 03:24:26;;;;;;;3.20;1.05;;;;;;;;;;5090458;28;20228;-17
2022/09/15 03:26:55;;;;;;;4.30;1.38;;;;;;;;;;5096191;28;20282;-17
2022/09/15 03:29:22;;;;;;;5.32;1.45;;;;;;;;;;5110907;28;20708;-17
2022/09/15 03:31:50;;;;;;;2.33;1.20;;;;;;;;;;5110873;28;20286;-17
2022/09/15 03:34:17;;;;;;;3.58;1.65;;;;;;;;;;5110820;28;20652;-18
2022/09/15 03:36:45;;;;;;;1.83;1.10;;;;;;;;;;5093482;28;20290;-18
2022/09/15 03:39:12;;;;;;;3.00;1.20;;;;;;;;;;5109040;27;20752;-18
2022/09/15 03:41:40;;;;;;;2.33;1.17;;;;;;;;;;5097241;27;20788;-17
2022/09/15 03:44:08;;;;;;;1.75;1.10;;;;;;;;;;5093922;28;20338;-16
2022/09/15 03:46:36;;;;;;;1.92;0.90;;;;;;;;;;5106961;28;20274;-17
2022/09/15 03:49:03;;;;;;;2.90;1.20;;;;;;;;;;5113459;28;21080;-17
2022/09/15 03:51:31;;;;;;;3.42;1.20;;;;;;;;;;5114346;28;20231;-17
2022/09/15 03:53:58;;;;;;;3.10;1.13;;;;;;;;;;5113801;28;20220;-18
2022/09/15 03:56:25;;;;;;;2.80;1.20;;;;;;;;;;5114501;28;20236;-18
2022/09/15 03:58:53;;;;;;;1.77;0.95;;;;;;;;;;5113992;28;21235;-17
2022/09/15 04:01:22;;;;;;;4.85;1.10;;;;;;;;;;5113270;27;20744;-17
2022/09/15 04:03:50;;;;;;;4.13;1.40;;;;;;;;;;5113401;28;20307;-16
2022/09/15 04:06:18;;;;;;;6.07;1.30;;;;;;;;;;5099078;28;20318;-16
2022/09/15 04:08:45;;;;;;;3.60;1.60;;;;;;;;;;5093612;28;20704;-16
2022/09/15 04:11:12;;;;;;;2.53;1.33;;;;;;;;;;5102156;27;20236;-16
2022/09/15 04:13:40;;;;;;;3.28;1.30;;;;;;;;;;5113777;27;20977;-16
2022/09/15 04:16:08;;;;;;;4.07;1.42;;;;;;;;;;5104589;27;20236;-17
2022/09/15 04:18:37;;;;;;;2.53;1.48;;;;;;;;;;5093542;28;20229;-17
2022/09/15 04:21:05;;;;;;;2.58;1.38;;;;;;;;;;5092702;28;20784;-17
2022/09/15 04:23:32;;;;;;;3.28;1.55;;;;;;;;;;5113380;28;20224;-17
2022/09/15 04:26:00;;;;;;;2.90;1.20;;;;;;;;;;5113277;28;20278;-16
2022/09/15 04:28:28;;;;;;;2.90;1.33;;;;;;;;;;5113116;28;20965;-17
2022/09/15 04:31:02;;;;;;;3.17;1.58;;;;;;;;;;5113348;28;20289;-17
2022/09/15 04:33:29;;;;;;;2.00;1.60;;;;;;;;;;5112902;28;20253;-16
2022/09/15 04:35:59;;;;;;;4.57;1.35;;;;;;;;;;5112543;28;20727;-16
2022/09/15 04:38:26;;;;;;;4.80;1.45;;;;;;;;;;5113429;27;20224;-16
2022/09/15 04:40:54;;;;;;;3.80;1.35;;;;;;;;;;5113450;27;20220;-16
2022/09/15 04:43:21;;;;;;;2.35;1.45;;;;;;;;;;5112621;27;20223;-17
2022/09/15 04:45:49;;;;;;;3.30;1.00;;;;;;;;;;5113093;28;20224;-17
2022/09/15 04:48:16;;;;;;;1.85;1.20;;;;;;;;;;5112820;28;20228;-17
2022/09/15 04:50:43;;;;;;;4.22;1.33;;;;;;;;;;5113149;28;20301;-17
2022/09/15 04:53:12;;;;;;;3.10;1.40;;;;;;;;;;5112740;28;20208;-17
2022/09/15 04:55:39;;;;;;;4.57;1.40;;;;;;;;;;5099744;28;20241;-17
2022/09/15 04:58:07;;;;;;;4.80;1.50;;;;;;;;;;5092776;28;20228;-16
2022/09/15 05:00:41;;;;;;;1.40;1.10;;;;;;;;;;5096338;28;20395;-17
2022/09/15 05:03:09;;;;;;;2.35;1.20;;;;;;;;;;5113223;27;20270;-16
2022/09/15 05:05:36;;;;;;;1.75;0.98;;;;;;;;;;5105825;28;20281;-17
2022/09/15 05:08:03;;;;;;;4.22;1.45;;;;;;;;;;5098720;28;20236;-17
2022/09/15 05:10:32;;;;;;;3.08;1.13;;;;;;;;;;5092542;28;20394;-17
2022/09/15 05:13:01;;;;;;;2.72;1.25;;;;;;;;;;5091987;28;20225;-17
2022/09/15 05:15:28;;;;;;;2.90;1.13;;;;;;;;;;5095985;28;20561;-16
2022/09/15 05:17:55;;;;;;;4.65;1.27;;;;;;;;;;5111592;27;20289;-16
2022/09/15 05:20:22;;;;;;;3.08;1.30;;;;;;;;;;5112575;27;20251;-16
2022/09/15 05:22:50;;;;;;;4.28;1.20;;;;;;;;;;5112085;27;20247;-16
2022/09/15 05:25:17;;;;;;;5.00;1.48;;;;;;;;;;5112928;27;21021;-17
2022/09/15 05:27:44;;;;;;;4.20;1.50;;;;;;;;;;5111357;27;20293;-17
2022/09/15 05:30:13;;;;;;;2.05;1.30;;;;;;;;;;5111354;27;20228;-16
2022/09/15 05:33:01;;;;;;;3.33;1.10;;;;;;;;;;5092326;28;20319;-17
2022/09/15 05:35:28;;;;;;;2.30;1.13;;;;;;;;;;5101081;28;20281;-17
2022/09/15 05:37:55;;;;;;;2.78;1.48;;;;;;;;;;5112274;28;20228;-29
2022/09/15 05:40:22;;;;;;;3.38;1.27;;;;;;;;;;5112216;27;20301;-17
2022/09/15 05:42:50;;;;;;;3.63;1.38;;;;;;;;;;5111556;28;20236;-17
2022/09/15 05:45:19;;;;;;;4.75;1.65;;;;;;;;;;5110171;28;20282;-17
2022/09/15 05:47:46;;;;;;;4.40;1.63;;;;;;;;;;5092103;28;20890;-17
2022/09/15 05:50:13;;;;;;;2.40;1.33;;;;;;;;;;5092160;28;20282;-17
2022/09/15 05:52:41;;;;;;;2.65;1.20;;;;;;;;;;5090981;28;20762;-16
2022/09/15 05:55:09;;;;;;;4.22;1.67;;;;;;;;;;5091689;28;20271;-17
2022/09/15 05:57:36;;;;;;;5.93;1.40;;;;;;;;;;5091637;28;20633;-16
2022/09/15 06:00:04;;;;;;;2.92;1.67;;;;;;;;;;5090614;28;20225;-17
2022/09/15 06:02:33;;;;;;;3.15;1.55;;;;;;;;;;5130432;27;20709;-17
2022/09/15 06:05:01;;;;;;;3.28;1.50;;;;;;;;;;5116294;27;20220;-17
2022/09/15 06:07:29;;;;;;;5.03;1.50;;;;;;;;;;5091089;28;20232;-17
2022/09/15 06:09:56;;;;;;;2.38;1.25;;;;;;;;;;5091536;28;20270;-16
2022/09/15 06:12:23;;;;;;;4.13;1.50;;;;;;;;;;5101709;28;20228;-16
2022/09/15 06:14:52;;;;;;;2.97;1.67;;;;;;;;;;5094673;27;20240;-16
2022/09/15 06:17:21;;;;;;;2.95;1.27;;;;;;;;;;5106562;28;20291;-17
2022/09/15 06:19:49;;;;;;;1.63;1.13;;;;;;;;;;5100051;28;20306;-17
2022/09/15 06:22:17;;;;;;;1.67;1.00;;;;;;;;;;5101033;28;20313;-18
2022/09/15 06:24:44;;;;;;;3.10;1.33;;;;;;;;;;5102491;28;20216;-17
2022/09/15 06:27:11;;;;;;;5.28;1.40;;;;;;;;;;5102024;28;20228;-17
2022/09/15 06:29:39;;;;;;;3.70;1.15;;;;;;;;;;5100823;28;20358;-17
2022/09/15 06:32:06;;;;;;;2.20;1.45;;;;;;;;;;5097239;28;20335;-17
2022/09/15 06:34:33;;;;;;;3.30;1.25;;;;;;;;;;5096446;28;20233;-16
2022/09/15 06:37:02;;;;;;;9.20;2.00;;;;;;;;;;5103054;28;20307;-16
2022/09/15 06:39:29;;;;;;;5.57;1.60;;;;;;;;;;5109572;28;20231;-16
2022/09/15 06:41:57;;;;;;;7.18;1.30;;;;;;;;;;5090340;28;20318;-16
2022/09/15 06:44:30;;;;;;;6.85;1.58;;;;;;;;;;5093271;28;21109;-17
2022/09/15 06:46:57;;;;;;;5.93;1.40;;;;;;;;;;5095415;28;20212;-16
2022/09/15 06:49:25;;;;;;;3.30;1.33;;;;;;;;;;5090787;28;20243;-17
2022/09/15 06:51:52;;;;;;;3.90;1.65;;;;;;;;;;5092163;28;20707;-17
2022/09/15 06:54:21;;;;;;;3.83;1.40;;;;;;;;;;5091072;28;20232;-17
2022/09/15 06:56:48;;;;;;;4.15;1.27;;;;;;;;;;5103789;28;20277;-17
2022/09/15 06:59:16;;;;;;;2.50;1.17;;;;;;;;;;5109265;28;20228;-17
2022/09/15 07:01:43;;;;;;;7.15;2.75;;;;;;;;;;5109572;28;20765;-16
2022/09/15 07:04:10;;;;;;;9.07;4.03;;;;;;;;;;5111021;28;20681;-17
2022/09/15 07:06:38;;;;;;;10.68;4.10;;;;;;;;;;5106255;28;20860;-17
2022/09/15 07:09:05;;;;;;;13.20;4.03;;;;;;;;;;5111139;27;20278;-17
2022/09/15 07:11:34;;;;;;;9.07;3.97;;;;;;;;;;5092519;28;20294;-16
2022/09/15 07:14:01;;;;;;;9.27;4.05;;;;;;;;;;5094880;28;20699;-17
2022/09/15 07:16:29;;;;;;;6.38;3.30;;;;;;;;;;5106116;28;20285;-17
2022/09/15 07:18:57;;;;;;;7.13;3.22;;;;;;;;;;5113693;27;20266;-17
2022/09/15 07:21:24;;;;;;;6.30;2.83;;;;;;;;;;5096225;28;20703;-17
2022/09/15 07:23:51;;;;;;;9.38;2.78;;;;;;;;;;5094028;28;20956;-17
2022/09/15 07:26:19;;;;;;;5.38;2.45;;;;;;;;;;5093932;28;20315;-17
2022/09/15 07:28:49;;;;;;;6.80;2.45;;;;;;;;;;5099014;28;21239;-17
2022/09/15 07:31:17;;;;;;;5.90;2.30;;;;;;;;;;5107073;28;20695;-16
2022/09/15 07:33:44;;;;;;;6.40;2.13;;;;;;;;;;5114157;28;20285;-17
2022/09/15 07:36:12;;;;;;;6.32;2.13;;;;;;;;;;5107665;28;20334;-17
2022/09/15 07:38:39;;;;;;;6.72;2.22;;;;;;;;;;5093465;28;20786;-16
2022/09/15 07:41:07;;;;;;;5.85;2.10;;;;;;;;;;5109759;28;20232;-16
2022/09/15 07:43:34;;;;;;;6.07;1.80;;;;;;;;;;5114150;27;20710;-16
2022/09/15 07:46:03;;;;;;;6.43;1.88;;;;;;;;;;5105129;27;20225;-16
2022/09/15 07:48:30;;;;;;;5.13;1.60;;;;;;;;;;5099125;28;20236;-17
2022/09/15 07:50:58;;;;;;;6.28;1.77;;;;;;;;;;5102482;28;20224;-16
2022/09/15 07:53:27;;;;;;;7.45;1.83;;;;;;;;;;5113804;28;20224;-15
2022/09/15 07:55:54;;;;;;;6.13;1.90;;;;;;;;;;5114255;28;20232;-18
2022/09/15 07:58:22;;;;;;;10.70;1.90;;;;;;;;;;5113330;28;20236;-16
2022/09/15 08:00:49;;;;;;;3.70;1.40;;;;;;;;;;5113991;28;20236;-18
2022/09/15 08:03:18;;;;;;;5.75;1.38;;;;;;;;;;5114101;27;20239;-18
2022/09/15 08:05:45;;;;;;;8.73;1.92;;;;;;;;;;5112005;28;20381;-18
2022/09/15 08:08:13;;;;;;;13.38;1.98;;;;;;;;;;5093960;28;20233;-16
2022/09/15 08:10:40;;;;;;;13.68;1.52;;;;;;;;;;5092728;28;20236;-16
2022/09/15 08:13:08;;;;;;;10.95;1.58;;;;;;;;;;5108908;27;20777;-16
2022/09/15 08:15:35;;;;;;;11.35;2.05;;;;;;;;;;5129490;27;21019;-15
2022/09/15 08:18:03;;;;;;;11.32;1.40;;;;;;;;;;5113807;28;20282;-15
2022/09/15 08:20:32;;;;;;;7.85;2.10;;;;;;;;;;5113143;27;20232;-16
2022/09/15 08:22:59;;;;;;;9.02;1.63;;;;;;;;;;5111661;28;20232;-16
2022/09/15 08:25:26;;;;;;;6.65;1.65;;;;;;;;;;5112679;28;20991;-18
2022/09/15 08:27:55;;;;;;;12.73;1.70;;;;;;;;;;5113477;28;20278;-17
2022/09/15 08:30:22;;;;;;;11.38;1.63;;;;;;;;;;5113542;28;20235;-16
2022/09/15 08:32:49;;;;;;;6.97;1.20;;;;;;;;;;5113258;28;20224;-16
2022/09/15 08:35:17;;;;;;;5.68;1.15;;;;;;;;;;5110960;28;20239;-16
2022/09/15 08:37:46;;;;;;;9.57;1.25;;;;;;;;;;5091891;28;20320;-16
2022/09/15 08:40:14;;;;;;;8.35;1.48;;;;;;;;;;5093893;28;20236;-16
2022/09/15 08:42:42;;;;;;;3.95;1.30;;;;;;;;;;5092041;28;20255;-16
2022/09/15 08:45:14;;;;;;;9.35;1.70;;;;;;;;;;5091067;28;20762;-16
2022/09/15 08:47:43;;;;;;;5.43;1.00;;;;;;;;;;5106661;28;20236;-16
2022/09/15 08:50:11;;;;;;;6.38;1.20;;;;;;;;;;5111415;28;20788;-16
2022/09/15 08:52:39;;;;;;;7.43;1.08;;;;;;;;;;5106240;28;20344;-16
2022/09/15 08:55:11;;;;;;;7.20;1.20;;;;;;;;;;5107108;28;21510;-17
2022/09/15 08:57:39;;;;;;;7.78;1.17;;;;;;;;;;5111999;28;20224;-18
2022/09/15 09:00:07;;;;;;;7.18;1.17;;;;;;;;;;5111462;28;20232;-15
2022/09/15 09:02:37;;;;;;;11.13;1.40;;;;;;;;;;5094091;28;20221;-16
2022/09/15 09:05:06;;;;;;;4.82;1.13;;;;;;;;;;5111712;27;20493;-17
2022/09/15 09:07:37;;;;;;;4.03;1.00;;;;;;;;;;5110488;28;20224;-15
2022/09/15 09:10:06;;;;;;;7.10;0.85;;;;;;;;;;5111173;28;20228;-18
2022/09/15 09:12:48;;;;;;;6.00;1.10;;;;;;;;;;5110915;28;20989;-17
2022/09/15 09:15:20;;;;;;;5.80;1.08;;;;;;;;;;5110365;28;20721;-18
2022/09/15 09:17:55;;;;;;;7.22;1.23;;;;;;;;;;5111576;28;20227;-18
2022/09/15 09:20:34;;;;;;;7.30;1.25;;;;;;;;;;5110886;28;20285;-17
2022/09/15 09:23:01;;;;;;;6.97;1.55;;;;;;;;;;5110603;28;21097;-17
2022/09/15 09:25:30;;;;;;;4.20;0.98;;;;;;;;;;5110664;28;20289;-17
2022/09/15 09:27:58;;;;;;;5.15;1.05;;;;;;;;;;5111678;28;20239;-16
2022/09/15 09:30:27;;;;;;;8.05;1.00;;;;;;;;;;5106470;28;20233;-15
2022/09/15 09:32:57;;;;;;;4.18;1.25;;;;;;;;;;5090793;28;20232;-16
2022/09/15 09:35:26;;;;;;;5.80;1.15;;;;;;;;;;5092473;28;20262;-16
2022/09/15 09:37:53;;;;;;;6.05;1.20;;;;;;;;;;5110991;28;20228;-15
2022/09/15 09:40:20;;;;;;;7.80;0.90;;;;;;;;;;5103325;28;20262;-15
2022/09/15 09:42:48;;;;;;;13.10;1.70;;;;;;;;;;5102829;28;20471;-16
2022/09/15 09:45:18;;;;;;;18.33;1.45;;;;;;;;;;5110393;28;20699;-16
2022/09/15 09:47:46;;;;;;;10.98;2.28;;;;;;;;;;5107896;28;20236;-15
2022/09/15 09:50:32;;;;;;;19.20;1.70;;;;;;;;;;5108985;28;20232;-16
2022/09/15 09:52:59;;;;;;;13.43;1.50;;;;;;;;;;5104908;28;20660;-16
2022/09/15 09:55:27;;;;;;;6.70;1.42;;;;;;;;;;5110295;28;20286;-16
2022/09/15 09:57:54;;;;;;;5.20;1.13;;;;;;;;;;5109711;28;20309;-15
2022/09/15 10:00:33;;;;;;;7.38;1.20;;;;;;;;;;5111010;27;20285;-15
2022/09/15 10:03:08;;;;;;;8.93;0.98;;;;;;;;;;5104802;27;20229;-16
2022/09/15 10:05:35;;;;;;;6.65;1.00;;;;;;;;;;5090432;28;20426;-15
2022/09/15 10:08:03;;;;;;;5.68;0.98;;;;;;;;;;5089132;28;20233;-15
2022/09/15 10:10:31;;;;;;;7.95;0.93;;;;;;;;;;5109373;28;20228;-15
2022/09/15 10:12:58;;;;;;;5.05;1.10;;;;;;;;;;5109653;28;20247;-16
2022/09/15 10:15:27;;;;;;;5.35;1.10;;;;;;;;;;5091658;28;20240;-16
2022/09/15 10:17:55;;;;;;;8.18;1.20;;;;;;;;;;5089338;28;20233;-16
2022/09/15 10:20:24;;;;;;;5.43;1.25;;;;;;;;;;5090928;28;20232;-15
2022/09/15 10:22:51;;;;;;;3.67;1.10;;;;;;;;;;5089597;28;20245;-16
2022/09/15 10:25:29;;;;;;;5.65;0.95;;;;;;;;;;5099328;27;20714;-15
2022/09/15 10:28:16;;;;;;;3.70;1.15;;;;;;;;;;5111108;28;20232;-16
2022/09/15 10:30:56;;;;;;;3.08;0.90;;;;;;;;;;5110462;28;20228;-16
2022/09/15 10:33:25;;;;;;;2.55;0.85;;;;;;;;;;5110440;28;20231;-16
2022/09/15 10:35:53;;;;;;;4.38;1.00;;;;;;;;;;5105578;27;20687;-16
2022/09/15 10:38:21;;;;;;;5.93;0.80;;;;;;;;;;5110851;28;20236;-16
2022/09/15 10:40:50;;;;;;;3.88;0.85;;;;;;;;;;5108928;28;20236;-16
2022/09/15 10:43:22;;;;;;;5.10;0.77;;;;;;;;;;5109821;28;20236;-15
2022/09/15 10:45:49;;;;;;;4.38;0.98;;;;;;;;;;5102116;28;20730;-16
2022/09/15 10:48:30;;;;;;;8.23;1.08;;;;;;;;;;5089638;28;20688;-18
2022/09/15 10:50:58;;;;;;;3.88;0.75;;;;;;;;;;5096854;28;20236;-16
2022/09/15 10:53:29;;;;;;;3.58;0.90;;;;;;;;;;5099960;28;20231;-15
2022/09/15 10:55:58;;;;;;;3.60;1.05;;;;;;;;;;5101662;28;20228;-16
2022/09/15 10:58:40;;;;;;;6.47;1.17;;;;;;;;;;5100255;28;20290;-15
2022/09/15 11:01:28;;;;;;;7.93;1.10;;;;;;;;;;5100147;27;20232;-16
2022/09/15 11:04:00;;;;;;;3.10;0.90;;;;;;;;;;5089803;28;21003;-18
2022/09/15 11:06:28;;;;;;;6.45;0.80;;;;;;;;;;5103312;28;20227;-16
2022/09/15 11:08:59;;;;;;;3.42;0.70;;;;;;;;;;5098611;28;20232;-16
2022/09/15 11:11:29;;;;;;;3.13;0.77;;;;;;;;;;5109393;28;20773;-16
2022/09/15 11:13:59;;;;;;;3.10;0.73;;;;;;;;;;5109955;27;20236;-17
2022/09/15 11:16:29;;;;;;;2.95;0.85;;;;;;;;;;5098730;28;20233;-15
2022/09/15 11:19:01;;;;;;;6.00;1.40;;;;;;;;;;5090224;28;20704;-16
2022/09/15 11:21:29;;;;;;;5.53;1.10;;;;;;;;;;5108994;28;20298;-16
2022/09/15 11:24:02;;;;;;;8.75;1.00;;;;;;;;;;5110456;27;20232;-16
2022/09/15 11:26:30;;;;;;;7.50;1.10;;;;;;;;;;5108728;27;20240;-16
2022/09/15 11:28:58;;;;;;;1.67;0.60;;;;;;;;;;5109556;28;20282;-16
2022/09/15 11:31:26;;;;;;;4.10;1.15;;;;;;;;;;5108610;28;20867;-16
2022/09/15 11:33:54;;;;;;;2.08;0.55;;;;;;;;;;5109567;28;20231;-16
2022/09/15 11:36:24;;;;;;;4.05;0.80;;;;;;;;;;5108338;28;20302;-16
2022/09/15 11:38:52;;;;;;;5.35;1.20;;;;;;;;;;5102282;28;20229;-16
2022/09/15 11:41:22;;;;;;;3.92;0.70;;;;;;;;;;5103041;27;20224;-16
2022/09/15 11:43:58;;;;;;;3.97;0.93;;;;;;;;;;5096755;28;20267;-15
2022/09/15 11:46:28;;;;;;;9.35;1.42;;;;;;;;;;5100396;28;20680;-16
2022/09/15 11:48:56;;;;;;;4.30;0.88;;;;;;;;;;5101534;28;20307;-16
2022/09/15 11:51:25;;;;;;;8.52;1.23;;;;;;;;;;5095125;28;20593;-16
2022/09/15 11:53:53;;;;;;;5.93;1.02;;;;;;;;;;5102990;28;20220;-15
2022/09/15 11:56:21;;;;;;;4.13;1.10;;;;;;;;;;5098920;28;20290;-16
2022/09/15 11:58:52;;;;;;;5.03;1.10;;;;;;;;;;5099154;28;20236;-16
2022/09/15 12:01:20;;;;;;;9.02;1.10;;;;;;;;;;5098237;28;20286;-14
2022/09/15 12:03:49;;;;;;;5.30;0.98;;;;;;;;;;5103131;28;20639;-15
2022/09/15 12:06:17;;;;;;;7.13;1.10;;;;;;;;;;5112503;28;20235;-16
2022/09/15 12:08:46;;;;;;;10.45;1.20;;;;;;;;;;5106646;27;20235;-15
2022/09/15 12:11:16;;;;;;;3.97;0.85;;;;;;;;;;5102628;28;20255;-18
2022/09/15 12:13:44;;;;;;;5.20;1.02;;;;;;;;;;5110709;28;20258;-14
2022/09/15 12:16:11;;;;;;;6.13;0.90;;;;;;;;;;5101680;28;20280;-17
2022/09/15 12:18:40;;;;;;;6.50;0.75;;;;;;;;;;5101665;28;20275;-15
2022/09/15 12:21:13;;;;;;;6.07;0.98;;;;;;;;;;5094783;28;20290;-18
2022/09/15 12:23:41;;;;;;;4.93;1.23;;;;;;;;;;5101957;28;20241;-15
2022/09/15 12:26:14;;;;;;;8.85;1.13;;;;;;;;;;5097848;27;20291;-15
2022/09/15 12:28:50;;;;;;;9.73;1.63;;;;;;;;;;5100607;28;20285;-15
2022/09/15 12:31:28;;;;;;;3.47;1.00;;;;;;;;;;5101802;28;20286;-18
2022/09/15 12:33:56;;;;;;;2.72;0.85;;;;;;;;;;5098641;28;20318;-17
2022/09/15 12:36:34;;;;;;;2.47;0.70;;;;;;;;;;5101626;28;20290;-15
2022/09/15 12:39:01;;;;;;;5.15;0.82;;;;;;;;;;5096780;28;20964;-15
2022/09/15 12:41:30;;;;;;;5.22;1.10;;;;;;;;;;5105357;28;20236;-18
2022/09/15 12:43:58;;;;;;;5.40;0.90;;;;;;;;;;5103771;28;20241;-15
2022/09/15 12:46:25;;;;;;;4.53;1.00;;;;;;;;;;5101707;28;20293;-14
2022/09/15 12:48:53;;;;;;;8.63;1.08;;;;;;;;;;5102595;28;20265;-15
2022/09/15 12:51:21;;;;;;;4.38;0.80;;;;;;;;;;5099489;28;20228;-17
2022/09/15 12:53:51;;;;;;;5.07;0.85;;;;;;;;;;5099003;28;20228;-17
2022/09/15 12:56:22;;;;;;;4.65;0.90;;;;;;;;;;5103080;28;20228;-17
2022/09/15 12:58:51;;;;;;;5.05;1.08;;;;;;;;;;5103464;28;20516;-17
2022/09/15 13:01:31;;;;;;;6.25;1.15;;;;;;;;;;5093912;28;20253;-15
2022/09/15 13:04:12;;;;;;;9.85;1.08;;;;;;;;;;5100956;28;20243;-15
2022/09/15 13:06:40;;;;;;;5.38;1.10;;;;;;;;;;5098528;28;20297;-14
2022/09/15 13:09:18;;;;;;;8.80;1.35;;;;;;;;;;5088111;28;20232;-15
2022/09/15 13:11:45;;;;;;;5.20;0.70;;;;;;;;;;5089255;28;20290;-16
2022/09/15 13:14:16;;;;;;;7.55;1.33;;;;;;;;;;5089322;28;20715;-16
2022/09/15 13:16:45;;;;;;;4.43;1.00;;;;;;;;;;5089697;28;20237;-16
2022/09/15 13:19:14;;;;;;;3.78;1.08;;;;;;;;;;5088715;28;20236;-16
2022/09/15 13:21:42;;;;;;;4.07;0.98;;;;;;;;;;5102175;28;20244;-16
2022/09/15 13:24:12;;;;;;;4.07;0.70;;;;;;;;;;5105619;28;20289;-15
2022/09/15 13:26:39;;;;;;;3.22;0.77;;;;;;;;;;5109898;27;20239;-16
2022/09/15 13:29:07;;;;;;;3.85;0.82;;;;;;;;;;5111936;28;20412;-16
2022/09/15 13:31:37;;;;;;;3.78;1.20;;;;;;;;;;5109850;28;20228;-16
2022/09/15 13:34:12;;;;;;;3.60;1.00;;;;;;;;;;5111302;28;20231;-15
2022/09/15 13:37:04;;;;;;;3.33;1.02;;;;;;;;;;5098897;28;20257;-15
2022/09/15 13:39:58;;;;;;;2.72;0.90;;;;;;;;;;5090692;28;20333;-15
2022/09/15 13:42:26;;;;;;;5.00;1.20;;;;;;;;;;5092338;28;20387;-16
2022/09/15 13:45:00;;;;;;;2.20;0.77;;;;;;;;;;5110993;27;20902;-16
2022/09/15 13:47:36;;;;;;;3.85;0.90;;;;;;;;;;5110844;28;20243;-15
2022/09/15 13:50:12;;;;;;;2.33;0.80;;;;;;;;;;5110775;28;20235;-15
2022/09/15 13:52:46;;;;;;;3.33;0.80;;;;;;;;;;5090238;28;20236;-16
2022/09/15 13:55:18;;;;;;;4.95;1.10;;;;;;;;;;5108122;28;20231;-15
2022/09/15 13:57:46;;;;;;;3.17;0.98;;;;;;;;;;5109984;27;20235;-15
2022/09/15 14:00:35;;;;;;;6.07;1.00;;;;;;;;;;5106058;28;20252;-15
2022/09/15 14:03:05;;;;;;;5.63;1.02;;;;;;;;;;5090192;28;20282;-16
2022/09/15 14:05:33;;;;;;;5.35;1.02;;;;;;;;;;5101896;28;20653;-16
2022/09/15 14:08:01;;;;;;;5.82;1.17;;;;;;;;;;5110220;28;20244;-16
2022/09/15 14:10:29;;;;;;;3.40;0.80;;;;;;;;;;5110563;28;20278;-15
2022/09/15 14:12:57;;;;;;;6.28;1.27;;;;;;;;;;5111160;28;20232;-15
2022/09/15 14:15:25;;;;;;;3.22;0.90;;;;;;;;;;5108613;28;20229;-16
2022/09/15 14:17:52;;;;;;;7.45;1.25;;;;;;;;;;5097044;28;20233;-16
2022/09/15 14:20:23;;;;;;;6.43;1.10;;;;;;;;;;5098794;28;20233;-15
2022/09/15 14:22:50;;;;;;;5.38;0.80;;;;;;;;;;5088913;28;20244;-15
2022/09/15 14:25:18;;;;;;;8.55;1.05;;;;;;;;;;5090307;28;20233;-15
2022/09/15 14:27:45;;;;;;;3.30;0.70;;;;;;;;;;5102060;28;20333;-16
2022/09/15 14:30:16;;;;;;;2.55;0.70;;;;;;;;;;5110570;28;20258;-16
2022/09/15 14:32:44;;;;;;;2.95;0.85;;;;;;;;;;5109765;28;21606;-16
2022/09/15 14:35:13;;;;;;;4.25;0.88;;;;;;;;;;5111265;28;20817;-16
2022/09/15 14:37:48;;;;;;;2.33;0.88;;;;;;;;;;5105059;27;20281;-16
2022/09/15 14:40:19;;;;;;;4.05;0.80;;;;;;;;;;5110212;27;20953;-17
2022/09/15 14:42:46;;;;;;;8.88;0.90;;;;;;;;;;5110515;27;20224;-16
2022/09/15 14:45:14;;;;;;;15.02;2.85;;;;;;;;;;5109039;27;20273;-16
2022/09/15 14:48:02;;;;;;;14.25;2.10;;;;;;;;;;5091834;28;20236;-16
2022/09/15 14:50:30;;;;;;;11.32;2.25;;;;;;;;;;5100158;28;20772;-15
2022/09/15 14:53:02;;;;;;;10.02;1.75;;;;;;;;;;5099057;28;20236;-16
2022/09/15 14:55:31;;;;;;;11.27;1.90;;;;;;;;;;5098451;28;20290;-16
2022/09/15 14:57:59;;;;;;;12.15;1.70;;;;;;;;;;5101792;28;20232;-15
2022/09/15 15:00:27;;;;;;;5.88;1.33;;;;;;;;;;5102860;27;20232;-16